Jamestown, Texas
Current Conditions -  °F | °C
As of 5:55 AM on Saturday 25 Oct 2014 (Local Time) from KJAS Reporting Station
Clear Clear  
Wind Chill: 48°   Ceiling: Unl
Heat Index: 48°   Visibility: 7mi
Dew Point: 47°   Wind: 0mph
Humidity: 98%   Direction: NA
Pressure: 30.17"   Gusts: NA
Location:  31.0751°N, 93.8073°W
Report Text: KJAS 251055Z AUTO 00000KT 7SM CLR 09/09 A3017 RMK AO2 T00880085
Loading
Personal Weather Stations






























Interactive Weather Map
Tropical Storm Tracking
New forecast layout! Learn more

10-Day Weather Forecast

Advertisements
Track Severe Weather on mobile